Time;durP1;ratioP1;P1;durP2;ratioP2;P2;SDS_P1;SDS_P2;PMS_P1;PMS_P2;Temp;Humidity;BMP_temperature;BMP_pressure;BME280_temperature;BME280_humidity;BME280_pressure;Samples;Min_cycle;Max_cycle;Signal;HPM_P1;HPM_P2
2023/08/01 00:02:14;;;;;;;;;;;;;;;27.79;37.36;100234.50;5086886;28;1099;-24
2023/08/01 00:04:39;;;;;;;;;;;;;;;27.76;37.85;100237.59;5081822;28;1905;-28
2023/08/01 00:07:05;;;;;;;;;;;;;;;27.66;37.75;100245.22;5093773;28;1122;-25
2023/08/01 00:09:30;;;;;;;;;;;;;;;27.67;37.66;100239.59;5093364;28;1225;-24
2023/08/01 00:11:56;;;;;;;;;;;;;;;27.66;37.90;100243.31;5093408;28;1026;-25
2023/08/01 00:14:24;;;;;;;;;;;;;;;27.68;37.56;100238.59;5079653;28;1050;-23
2023/08/01 00:16:50;;;;;;;;;;;;;;;27.86;37.49;100246.16;5086071;28;1047;-25
2023/08/01 00:19:15;;;;;;;;;;;;;;;27.78;37.44;100242.81;5099869;28;1226;-27
2023/08/01 00:21:41;;;;;;;;;;;;;;;27.74;37.50;100239.69;5093079;28;1006;-26
2023/08/01 00:24:08;;;;;;;;;;;;;;;27.66;37.63;100240.63;5079401;28;1031;-31
2023/08/01 00:26:33;;;;;;;;;;;;;;;27.81;37.13;100232.41;5085858;28;1914;-28
2023/08/01 00:28:59;;;;;;;;;;;;;;;27.99;36.90;100237.28;5099518;28;1047;-26
2023/08/01 00:31:24;;;;;;;;;;;;;;;27.77;37.38;100233.88;5079533;28;983;-25
2023/08/01 00:33:50;;;;;;;;;;;;;;;27.70;37.64;100233.84;5079802;28;1020;-30
2023/08/01 00:36:16;;;;;;;;;;;;;;;27.80;37.35;100227.22;5061589;28;1199;-24
2023/08/01 00:38:43;;;;;;;;;;;;;;;27.83;37.16;100232.22;5079489;28;1043;-27
2023/08/01 00:41:11;;;;;;;;;;;;;;;27.69;37.57;100232.19;5098372;28;1143;-27
2023/08/01 00:43:37;;;;;;;;;;;;;;;27.70;37.54;100228.44;5086665;28;1118;-24
2023/08/01 00:46:03;;;;;;;;;;;;;;;27.82;37.16;100226.00;5092803;28;1967;-26
2023/08/01 00:48:29;;;;;;;;;;;;;;;27.80;37.06;100219.94;5092643;28;1209;-25
2023/08/01 00:50:56;;;;;;;;;;;;;;;27.84;36.98;100212.28;5092758;28;1095;-27
2023/08/01 00:53:22;;;;;;;;;;;;;;;27.82;37.23;100217.03;5079085;28;1071;-25
2023/08/01 00:55:47;;;;;;;;;;;;;;;27.86;37.00;100213.72;5084728;28;1138;-30
2023/08/01 00:58:13;;;;;;;;;;;;;;;27.69;37.27;100218.66;5060987;28;1098;-28
2023/08/01 01:00:39;;;;;;;;;;;;;;;27.70;37.46;100214.06;5087755;28;1151;-25
2023/08/01 01:03:05;;;;;;;;;;;;;;;27.73;37.37;100216.38;5098934;28;1109;-26
2023/08/01 01:05:31;;;;;;;;;;;;;;;27.65;37.48;100217.34;5080555;28;1905;-26
2023/08/01 01:07:57;;;;;;;;;;;;;;;27.62;37.35;100210.50;5085793;28;1124;-27
2023/08/01 01:10:22;;;;;;;;;;;;;;;27.74;37.19;100208.06;5079306;28;1174;-25
2023/08/01 01:12:50;;;;;;;;;;;;;;;27.69;37.15;100205.16;5061064;28;1178;-27
2023/08/01 01:15:15;;;;;;;;;;;;;;;27.80;36.81;100209.13;5092018;28;1267;-26
2023/08/01 01:17:41;;;;;;;;;;;;;;;27.83;37.03;100205.19;5067993;28;1083;-26
2023/08/01 01:20:06;;;;;;;;;;;;;;;27.81;37.01;100201.88;5060544;28;1237;-25
2023/08/01 01:22:32;;;;;;;;;;;;;;;27.59;37.48;100210.88;5096072;28;982;-27
2023/08/01 01:24:58;;;;;;;;;;;;;;;27.50;37.54;100201.25;5078809;28;1910;-26
2023/08/01 01:27:23;;;;;;;;;;;;;;;27.61;37.71;100208.81;5091883;28;1238;-29
2023/08/01 01:29:49;;;;;;;;;;;;;;;27.48;37.79;100203.31;5098393;28;1031;-25
2023/08/01 01:32:14;;;;;;;;;;;;;;;27.81;36.82;100196.47;5084640;28;1130;-26
2023/08/01 01:34:40;;;;;;;;;;;;;;;27.65;37.12;100198.44;5080045;28;1082;-26
2023/08/01 01:37:05;;;;;;;;;;;;;;;27.74;37.05;100194.56;5098582;28;1146;-25
2023/08/01 01:39:32;;;;;;;;;;;;;;;27.68;36.92;100191.78;5074509;28;1227;-25
2023/08/01 01:41:57;;;;;;;;;;;;;;;27.73;36.74;100195.59;5060330;28;1137;-28
2023/08/01 01:44:23;;;;;;;;;;;;;;;27.67;36.86;100193.66;5075898;28;1224;-25
2023/08/01 01:46:49;;;;;;;;;;;;;;;27.83;36.57;100191.69;5090703;28;1973;-32
2023/08/01 01:49:14;;;;;;;;;;;;;;;27.67;37.00;100184.72;5084704;28;1145;-26
2023/08/01 01:51:40;;;;;;;;;;;;;;;27.84;36.21;100199.56;5079910;28;1129;-27
2023/08/01 01:54:06;;;;;;;;;;;;;;;27.78;36.71;100202.28;5097516;28;1039;-26
2023/08/01 01:56:32;;;;;;;;;;;;;;;27.73;36.89;100194.75;5097907;28;1050;-24
2023/08/01 01:58:58;;;;;;;;;;;;;;;27.66;37.00;100200.09;5079631;28;1178;-27
2023/08/01 02:01:23;;;;;;;;;;;;;;;27.71;36.66;100191.44;5077302;28;1154;-28
2023/08/01 02:03:49;;;;;;;;;;;;;;;27.85;36.17;100195.84;5076206;28;1123;-25
2023/08/01 02:06:15;;;;;;;;;;;;;;;27.70;36.51;100193.31;5079479;28;1910;-28
2023/08/01 02:08:40;;;;;;;;;;;;;;;27.74;36.68;100191.03;5079968;28;1161;-26
2023/08/01 02:11:06;;;;;;;;;;;;;;;27.77;36.26;100192.47;5079816;28;1284;-26
2023/08/01 02:13:32;;;;;;;;;;;;;;;27.67;36.98;100199.06;5092472;28;991;-25
2023/08/01 02:15:57;;;;;;;;;;;;;;;27.74;36.75;100199.13;5089977;28;1061;-29
2023/08/01 02:18:23;;;;;;;;;;;;;;;27.77;36.70;100200.59;5094499;28;1263;-27
2023/08/01 02:20:48;;;;;;;;;;;;;;;27.80;36.76;100201.03;5067421;28;1151;-27
2023/08/01 02:23:14;;;;;;;;;;;;;;;27.72;36.86;100206.59;5078328;28;1234;-27
2023/08/01 02:25:40;;;;;;;;;;;;;;;27.73;36.32;100203.69;5079538;28;2038;-26
2023/08/01 02:28:06;;;;;;;;;;;;;;;27.75;36.35;100198.09;5097202;28;1086;-26
2023/08/01 02:30:34;;;;;;;;;;;;;;;27.77;36.65;100200.59;5070111;28;1066;-28
2023/08/01 02:33:00;;;;;;;;;;;;;;;27.70;36.80;100203.25;5059175;28;1486;-25
2023/08/01 02:35:26;;;;;;;;;;;;;;;27.66;36.62;100213.59;5077255;28;1047;-24
2023/08/01 02:37:51;;;;;;;;;;;;;;;27.67;36.95;100207.19;5082790;28;1055;-25
2023/08/01 02:40:17;;;;;;;;;;;;;;;27.71;36.38;100207.66;5096617;28;1134;-26
2023/08/01 02:42:42;;;;;;;;;;;;;;;27.72;36.58;100209.31;5078012;28;986;-28
2023/08/01 02:45:08;;;;;;;;;;;;;;;27.65;36.64;100217.34;5077006;28;1898;-27
2023/08/01 02:47:34;;;;;;;;;;;;;;;27.69;36.51;100215.97;5076786;28;1047;-24
2023/08/01 02:49:59;;;;;;;;;;;;;;;27.70;36.74;100219.47;5077052;28;1118;-28
2023/08/01 02:52:25;;;;;;;;;;;;;;;27.55;36.97;100212.31;5078975;28;1058;-26
2023/08/01 02:54:50;;;;;;;;;;;;;;;27.63;36.42;100214.00;5096744;28;998;-28
2023/08/01 02:57:16;;;;;;;;;;;;;;;27.72;36.24;100214.72;5074275;28;1254;-28
2023/08/01 02:59:41;;;;;;;;;;;;;;;27.71;36.25;100213.06;5059885;28;1357;-26
2023/08/01 03:02:07;;;;;;;;;;;;;;;27.74;36.48;100216.16;5093991;28;1042;-28
2023/08/01 03:04:32;;;;;;;;;;;;;;;27.74;36.37;100215.34;5085852;28;1122;-27
2023/08/01 03:06:58;;;;;;;;;;;;;;;27.71;36.61;100218.47;5089743;28;1991;-26
2023/08/01 03:09:24;;;;;;;;;;;;;;;27.68;36.33;100210.69;5088081;28;1193;-29
2023/08/01 03:11:49;;;;;;;;;;;;;;;27.67;36.72;100214.44;5074225;28;1625;-30
2023/08/01 03:14:16;;;;;;;;;;;;;;;27.72;36.38;100210.16;5086203;28;1111;-25
2023/08/01 03:16:42;;;;;;;;;;;;;;;27.47;39.15;100215.16;5080452;28;1139;-29
2023/08/01 03:19:08;;;;;;;;;;;;;;;27.01;42.71;100214.59;5076200;28;1251;-27
2023/08/01 03:21:34;;;;;;;;;;;;;;;26.59;44.28;100222.56;5072883;28;1238;-26
2023/08/01 03:24:00;;;;;;;;;;;;;;;26.53;44.06;100218.75;5076703;28;1000;-26
2023/08/01 03:26:28;;;;;;;;;;;;;;;26.44;44.82;100223.44;5077702;28;1971;-32
2023/08/01 03:28:53;;;;;;;;;;;;;;;26.49;44.56;100223.69;5083208;28;1162;-28
2023/08/01 03:31:19;;;;;;;;;;;;;;;26.72;43.82;100230.78;5089191;28;1205;-29
2023/08/01 03:33:45;;;;;;;;;;;;;;;26.47;45.39;100239.25;5058710;28;1039;-28
2023/08/01 03:36:11;;;;;;;;;;;;;;;26.13;46.73;100241.53;5090010;28;1218;-27
2023/08/01 03:38:36;;;;;;;;;;;;;;;26.25;46.47;100236.47;5076527;28;1038;-25
2023/08/01 03:41:03;;;;;;;;;;;;;;;25.70;48.06;100244.06;5073244;28;1004;-28
2023/08/01 03:43:29;;;;;;;;;;;;;;;26.04;46.40;100237.28;5058376;28;1301;-26
2023/08/01 03:45:55;;;;;;;;;;;;;;;26.41;44.89;100245.38;5089589;28;1913;-28
2023/08/01 03:48:21;;;;;;;;;;;;;;;26.43;45.38;100253.28;5068970;28;1316;-30
2023/08/01 03:50:46;;;;;;;;;;;;;;;26.67;45.04;100240.47;5076230;28;1130;-28
2023/08/01 03:53:12;;;;;;;;;;;;;;;25.97;47.46;100247.97;5078731;28;1155;-28
2023/08/01 03:55:37;;;;;;;;;;;;;;;26.76;45.66;100245.53;5077372;28;1477;-28
2023/08/01 03:58:03;;;;;;;;;;;;;;;26.65;45.06;100254.16;5090813;28;1558;-29
2023/08/01 04:00:33;;;;;;;;;;;;;;;26.80;44.85;100253.25;5072376;28;1227;-31
2023/08/01 04:02:59;;;;;;;;;;;;;;;26.77;44.97;100257.19;5077077;28;2062;-28
2023/08/01 04:05:25;;;;;;;;;;;;;;;26.78;44.93;100250.75;5096328;28;1913;-28
2023/08/01 04:07:54;;;;;;;;;;;;;;;26.62;45.28;100252.69;5074839;28;2318;-32
2023/08/01 04:10:20;;;;;;;;;;;;;;;26.98;44.06;100244.69;5095677;28;1851;-25
2023/08/01 04:12:46;;;;;;;;;;;;;;;27.02;43.69;100246.84;5095235;28;2102;-24
2023/08/01 04:15:11;;;;;;;;;;;;;;;27.00;43.66;100253.44;5095224;28;1867;-26
2023/08/01 04:17:37;;;;;;;;;;;;;;;27.17;43.22;100259.44;5092293;28;2381;-30
2023/08/01 04:20:03;;;;;;;;;;;;;;;27.29;42.62;100248.09;5089386;28;2087;-28
2023/08/01 04:22:28;;;;;;;;;;;;;;;27.41;42.07;100261.88;5095710;28;2063;-29
2023/08/01 04:24:54;;;;;;;;;;;;;;;27.46;41.72;100257.53;5095593;28;2356;-27
2023/08/01 04:27:19;;;;;;;;;;;;;;;27.67;41.19;100258.53;5096008;28;1095;-28
2023/08/01 04:29:45;;;;;;;;;;;;;;;27.69;41.12;100250.25;5095335;28;1058;-31
2023/08/01 04:32:13;;;;;;;;;;;;;;;27.67;41.04;100255.81;5098495;28;900;-26
2023/08/01 04:34:39;;;;;;;;;;;;;;;27.77;40.29;100257.34;5098925;28;1121;-28
2023/08/01 04:37:05;;;;;;;;;;;;;;;27.91;40.63;100253.66;5098933;28;1002;-28
2023/08/01 04:39:30;;;;;;;;;;;;;;;27.92;40.28;100258.06;5098618;28;1098;-27
2023/08/01 04:41:56;;;;;;;;;;;;;;;28.06;39.98;100258.94;5080807;28;1062;-26
2023/08/01 04:44:21;;;;;;;;;;;;;;;27.97;40.15;100258.28;5098884;28;1007;-28
2023/08/01 04:46:47;;;;;;;;;;;;;;;28.10;40.08;100253.97;5099023;28;1914;-26
2023/08/01 04:49:13;;;;;;;;;;;;;;;28.15;40.24;100251.50;5098689;28;1024;-28
2023/08/01 04:51:39;;;;;;;;;;;;;;;28.18;39.57;100252.94;5099219;28;1045;-27
2023/08/01 04:54:04;;;;;;;;;;;;;;;28.18;39.49;100248.38;5098010;28;2360;-31
2023/08/01 04:56:30;;;;;;;;;;;;;;;28.08;39.96;100251.47;5098491;28;902;-26
2023/08/01 04:58:55;;;;;;;;;;;;;;;28.03;40.36;100253.94;5098785;28;1109;-26
2023/08/01 05:01:21;;;;;;;;;;;;;;;28.15;39.90;100253.34;5098924;28;1157;-27
2023/08/01 05:03:46;;;;;;;;;;;;;;;28.22;39.78;100256.94;5098870;28;1184;-29
2023/08/01 05:06:12;;;;;;;;;;;;;;;28.35;39.58;100257.00;5098570;28;1969;-27
2023/08/01 05:08:37;;;;;;;;;;;;;;;28.34;39.62;100260.72;5098109;28;1083;-29
2023/08/01 05:11:03;;;;;;;;;;;;;;;28.41;38.88;100257.25;5098301;28;1062;-32
2023/08/01 05:13:28;;;;;;;;;;;;;;;28.29;39.78;100263.22;5098658;28;1094;-26
2023/08/01 05:15:54;;;;;;;;;;;;;;;28.42;39.80;100265.16;5098716;28;1014;-27
2023/08/01 05:18:19;;;;;;;;;;;;;;;28.24;41.90;100266.50;5097993;28;1221;-23
2023/08/01 05:20:45;;;;;;;;;;;;;;;27.94;42.59;100269.50;5079981;28;1116;-27
2023/08/01 05:23:11;;;;;;;;;;;;;;;27.91;44.01;100267.19;5092738;28;1827;-24
2023/08/01 05:25:36;;;;;;;;;;;;;;;27.75;44.32;100260.25;5091237;28;1910;-24
2023/08/01 05:28:02;;;;;;;;;;;;;;;27.12;45.75;100269.97;5097718;28;984;-24
2023/08/01 05:30:27;;;;;;;;;;;;;;;27.13;44.91;100271.63;5097704;28;1049;-24
2023/08/01 05:32:54;;;;;;;;;;;;;;;26.31;47.97;100269.09;5097652;28;1054;-26
2023/08/01 05:35:20;;;;;;;;;;;;;;;26.50;48.35;100270.38;5097845;28;1161;-27
2023/08/01 05:37:45;;;;;;;;;;;;;;;27.45;46.39;100271.25;5097876;28;1165;-28
2023/08/01 05:40:11;;;;;;;;;;;;;;;27.86;43.88;100280.50;5098144;28;1177;-28
2023/08/01 05:42:36;;;;;;;;;;;;;;;28.08;43.15;100277.66;5097174;28;1073;-26
2023/08/01 05:45:03;;;;;;;;;;;;;;;28.13;42.47;100280.59;5097374;28;2219;-26
2023/08/01 05:47:29;;;;;;;;;;;;;;;28.20;43.11;100277.94;5097658;28;1166;-28
2023/08/01 05:49:55;;;;;;;;;;;;;;;28.16;42.84;100271.25;5098059;28;1050;-27
2023/08/01 05:52:20;;;;;;;;;;;;;;;28.08;42.81;100267.69;5097670;28;1137;-28
2023/08/01 05:54:46;;;;;;;;;;;;;;;28.00;43.12;100267.84;5090324;28;2243;-30
2023/08/01 05:57:12;;;;;;;;;;;;;;;27.96;42.89;100262.00;5097244;28;1082;-27
2023/08/01 05:59:37;;;;;;;;;;;;;;;28.02;42.72;100268.50;5097511;28;1063;-27
2023/08/01 06:02:03;;;;;;;;;;;;;;;28.01;42.22;100256.00;5097270;28;1078;-26
2023/08/01 06:04:28;;;;;;;;;;;;;;;28.18;41.63;100261.91;5097897;28;1103;-25
2023/08/01 06:06:54;;;;;;;;;;;;;;;28.15;41.72;100270.41;5092803;28;1977;-29
2023/08/01 06:09:19;;;;;;;;;;;;;;;28.01;41.05;100264.09;5094351;28;852;-28
2023/08/01 06:11:45;;;;;;;;;;;;;;;28.03;41.31;100263.94;5096914;28;1067;-28
2023/08/01 06:14:11;;;;;;;;;;;;;;;28.31;40.36;100266.53;5097093;28;1011;-27
2023/08/01 06:16:36;;;;;;;;;;;;;;;28.14;40.96;100259.81;5078728;28;1392;-26
2023/08/01 06:19:02;;;;;;;;;;;;;;;28.04;40.39;100265.59;5096904;28;1201;-27
2023/08/01 06:21:28;;;;;;;;;;;;;;;28.04;41.08;100255.63;5097578;28;1161;-30
2023/08/01 06:23:53;;;;;;;;;;;;;;;28.03;40.87;100253.13;5097097;28;2500;-25
2023/08/01 06:26:19;;;;;;;;;;;;;;;28.20;40.81;100251.72;5096738;28;1973;-27
2023/08/01 06:28:44;;;;;;;;;;;;;;;28.07;40.13;100248.97;5097219;28;987;-29
2023/08/01 06:31:10;;;;;;;;;;;;;;;28.20;40.27;100259.00;5096776;28;1410;-30
2023/08/01 06:33:35;;;;;;;;;;;;;;;27.48;40.50;100146.59;5087004;28;1134;-28
2023/08/01 06:36:01;;;;;;;;;;;;;;;28.21;40.09;100249.88;5096975;28;1422;-24
2023/08/01 06:38:27;;;;;;;;;;;;;;;28.12;40.04;100249.19;5096962;28;1197;-28
2023/08/01 06:40:52;;;;;;;;;;;;;;;28.35;39.86;100243.47;5078544;28;1150;-28
2023/08/01 06:43:18;;;;;;;;;;;;;;;28.36;39.79;100242.44;5096499;28;1113;-28
2023/08/01 06:45:43;;;;;;;;;;;;;;;28.14;39.58;100247.13;5089273;28;1909;-25
2023/08/01 06:48:09;;;;;;;;;;;;;;;28.20;40.38;100249.03;5096995;28;1370;-29
2023/08/01 06:50:34;;;;;;;;;;;;;;;28.25;40.04;100243.00;5096602;28;1173;-28
2023/08/01 06:53:00;;;;;;;;;;;;;;;28.14;40.66;100239.03;5095760;28;1861;-29
2023/08/01 06:55:26;;;;;;;;;;;;;;;28.27;40.66;100240.09;5096220;28;1072;-26
2023/08/01 06:57:52;;;;;;;;;;;;;;;28.41;40.11;100236.41;5078158;28;1082;-29
2023/08/01 07:00:17;;;;;;;;;;;;;;;28.54;39.77;100232.06;5078149;28;1048;-26
2023/08/01 07:02:43;;;;;;;;;;;;;;;28.57;39.04;100240.63;5096037;28;1112;-28
2023/08/01 07:05:08;;;;;;;;;;;;;;;28.59;39.86;100237.72;5096109;28;1902;-29
2023/08/01 07:07:34;;;;;;;;;;;;;;;28.64;40.04;100237.09;5096823;28;1274;-27
2023/08/01 07:10:00;;;;;;;;;;;;;;;28.64;39.74;100229.81;5095736;28;861;-29
2023/08/01 07:12:25;;;;;;;;;;;;;;;28.82;39.61;100242.72;5096340;28;1106;-28
2023/08/01 07:14:51;;;;;;;;;;;;;;;28.62;40.19;100237.28;5095778;28;1069;-26
2023/08/01 07:17:16;;;;;;;;;;;;;;;28.59;40.84;100240.41;5096026;28;1441;-28
2023/08/01 07:19:42;;;;;;;;;;;;;;;28.56;41.08;100238.13;5095426;28;1977;-31
2023/08/01 07:22:08;;;;;;;;;;;;;;;28.51;40.72;100238.72;5095536;28;1026;-29
2023/08/01 07:24:33;;;;;;;;;;;;;;;28.56;40.70;100235.41;5096254;28;2465;-31
2023/08/01 07:26:59;;;;;;;;;;;;;;;28.57;40.51;100232.50;5095855;28;1976;-28
2023/08/01 07:29:25;;;;;;;;;;;;;;;28.50;40.45;100228.94;5096092;28;1410;-28
2023/08/01 07:31:50;;;;;;;;;;;;;;;28.58;39.70;100238.72;5095920;28;1132;-30
2023/08/01 07:34:16;;;;;;;;;;;;;;;28.58;40.17;100239.56;5090354;28;1248;-30
2023/08/01 07:36:41;;;;;;;;;;;;;;;28.68;40.47;100232.91;5096186;28;1340;-25
2023/08/01 07:39:07;;;;;;;;;;;;;;;28.57;40.43;100242.47;5095887;28;1390;-26
2023/08/01 07:41:34;;;;;;;;;;;;;;;28.68;39.93;100238.31;5096180;28;1485;-28
2023/08/01 07:44:01;;;;;;;;;;;;;;;28.68;39.61;100251.84;5099127;28;1377;-26
2023/08/01 07:46:27;;;;;;;;;;;;;;;28.76;39.78;100234.59;5094799;28;1893;-29
2023/08/01 07:48:53;;;;;;;;;;;;;;;28.68;39.45;100236.47;5096126;28;1343;-26
2023/08/01 07:51:19;;;;;;;;;;;;;;;28.70;39.69;100226.28;5095266;28;1252;-29
2023/08/01 07:53:45;;;;;;;;;;;;;;;28.75;39.43;100233.75;5085652;28;1894;-27
2023/08/01 07:56:10;;;;;;;;;;;;;;;28.75;40.22;100228.34;5094730;28;1327;-28
2023/08/01 07:58:36;;;;;;;;;;;;;;;28.73;40.08;100233.97;5096283;28;1201;-29
2023/08/01 08:01:05;;;;;;;;;;;;;;;28.76;39.40;100229.19;5095275;28;1091;-30
2023/08/01 08:03:31;;;;;;;;;;;;;;;28.85;39.41;100230.66;5094457;28;1461;-31
2023/08/01 08:05:56;;;;;;;;;;;;;;;28.88;39.04;100232.13;5098918;28;1898;-28
2023/08/01 08:08:22;;;;;;;;;;;;;;;28.92;39.63;100228.78;5099341;28;1378;-31
2023/08/01 08:10:47;;;;;;;;;;;;;;;28.92;38.44;100228.78;5099688;28;1161;-32
2023/08/01 08:13:13;;;;;;;;;;;;;;;28.97;38.96;100230.91;5099655;28;1466;-28
2023/08/01 08:15:38;;;;;;;;;;;;;;;28.94;38.89;100225.88;5099539;28;1023;-27
2023/08/01 08:18:04;;;;;;;;;;;;;;;28.90;39.22;100228.16;5098950;28;1418;-28
2023/08/01 08:20:30;;;;;;;;;;;;;;;28.94;38.85;100223.16;5096662;28;1301;-28
2023/08/01 08:22:56;;;;;;;;;;;;;;;28.99;38.71;100225.28;5092579;28;2733;-28
2023/08/01 08:25:21;;;;;;;;;;;;;;;28.98;38.21;100219.00;5099191;28;1914;-26
2023/08/01 08:27:48;;;;;;;;;;;;;;;28.96;38.95;100218.38;5099432;28;1206;-31
2023/08/01 08:30:14;;;;;;;;;;;;;;;28.91;39.45;100226.28;5099324;28;1046;-31
2023/08/01 08:32:39;;;;;;;;;;;;;;;29.01;38.74;100220.47;5080799;28;1355;-28
2023/08/01 08:35:05;;;;;;;;;;;;;;;28.92;39.27;100226.06;5099386;28;1371;-29
2023/08/01 08:37:30;;;;;;;;;;;;;;;29.01;38.75;100224.00;5098732;28;1085;-28
2023/08/01 08:39:56;;;;;;;;;;;;;;;28.92;39.44;100223.38;5099090;28;1390;-28
2023/08/01 08:42:22;;;;;;;;;;;;;;;29.05;39.46;100213.59;5098401;28;1161;-29
2023/08/01 08:44:49;;;;;;;;;;;;;;;29.07;39.43;100220.47;5098906;28;1027;-29
2023/08/01 08:47:15;;;;;;;;;;;;;;;29.18;39.91;100229.00;5080890;28;1985;-29
2023/08/01 08:49:40;;;;;;;;;;;;;;;29.23;39.59;100222.97;5080777;28;1038;-28
2023/08/01 08:52:06;;;;;;;;;;;;;;;29.36;38.96;100213.97;5099074;28;1102;-33
2023/08/01 08:54:32;;;;;;;;;;;;;;;29.27;39.06;100210.66;5086081;28;1823;-29
2023/08/01 08:56:58;;;;;;;;;;;;;;;29.26;38.89;100215.22;5080657;28;1134;-25
2023/08/01 08:59:24;;;;;;;;;;;;;;;29.42;38.54;100216.69;5098712;28;1171;-27
2023/08/01 09:01:50;;;;;;;;;;;;;;;29.57;38.29;100218.31;5080668;28;1181;-31
2023/08/01 09:04:16;;;;;;;;;;;;;;;29.32;37.78;100209.00;5098677;28;1041;-26
2023/08/01 09:06:45;;;;;;;;;;;;;;;29.33;38.37;100213.34;5098965;28;1984;-26
2023/08/01 09:09:11;;;;;;;;;;;;;;;29.21;38.71;100204.22;5098132;28;990;-26
2023/08/01 09:11:43;;;;;;;;;;;;;;;29.25;38.79;100207.31;5098454;28;991;-26
2023/08/01 09:14:09;;;;;;;;;;;;;;;29.11;39.64;100201.94;5098541;28;1089;-26
2023/08/01 09:16:35;;;;;;;;;;;;;;;29.19;38.36;100207.16;5097683;28;1102;-27
2023/08/01 09:19:01;;;;;;;;;;;;;;;29.32;38.66;100200.03;5084629;28;1236;-25
2023/08/01 09:21:26;;;;;;;;;;;;;;;29.42;38.43;100205.00;5098630;28;983;-26
2023/08/01 09:23:52;;;;;;;;;;;;;;;29.36;37.98;100198.56;5079978;28;2402;-29
2023/08/01 09:26:18;;;;;;;;;;;;;;;29.39;38.29;100202.72;5097924;28;1905;-28
2023/08/01 09:28:43;;;;;;;;;;;;;;;29.47;38.00;100199.78;5098064;28;1061;-26
2023/08/01 09:31:09;;;;;;;;;;;;;;;29.50;37.14;100195.81;5090723;28;1268;-26
2023/08/01 09:33:39;;;;;;;;;;;;;;;29.69;36.12;100186.00;5096971;28;1006;-26
2023/08/01 09:36:05;;;;;;;;;;;;;;;29.80;36.47;100198.03;5097601;28;1121;-29
2023/08/01 09:38:33;;;;;;;;;;;;;;;29.82;36.20;100194.06;5098020;28;1101;-30
2023/08/01 09:40:59;;;;;;;;;;;;;;;29.85;36.45;100191.94;5097881;28;1110;-32
2023/08/01 09:43:24;;;;;;;;;;;;;;;29.88;36.71;100192.34;5079954;28;1123;-32
2023/08/01 09:45:51;;;;;;;;;;;;;;;29.86;35.95;100194.47;5089378;28;1909;-32
2023/08/01 09:48:26;;;;;;;;;;;;;;;29.91;36.31;100200.06;5092122;28;1121;-29
2023/08/01 09:50:53;;;;;;;;;;;;;;;29.87;35.89;100189.88;5097763;28;1340;-31
2023/08/01 09:53:18;;;;;;;;;;;;;;;29.92;36.44;100192.75;5096604;28;2335;-29
2023/08/01 09:55:44;;;;;;;;;;;;;;;30.01;36.17;100193.34;5098228;28;1134;-31
2023/08/01 09:58:09;;;;;;;;;;;;;;;30.06;36.30;100191.66;5096887;28;1096;-30
2023/08/01 10:00:35;;;;;;;;;;;;;;;30.18;35.71;100169.25;5079736;28;1359;-30
2023/08/01 10:03:00;;;;;;;;;;;;;;;30.09;36.28;100179.53;5097196;28;1091;-28
2023/08/01 10:05:30;;;;;;;;;;;;;;;30.08;36.21;100185.19;5078971;28;1902;-30
2023/08/01 10:07:56;;;;;;;;;;;;;;;29.76;37.43;100175.13;5096997;28;1336;-31
2023/08/01 10:10:22;;;;;;;;;;;;;;;29.59;37.85;100175.59;5097453;28;1034;-28
2023/08/01 10:12:48;;;;;;;;;;;;;;;29.58;37.68;100172.03;5096882;28;1085;-28
2023/08/01 10:15:14;;;;;;;;;;;;;;;29.54;37.75;100162.66;5096469;28;1402;-31
2023/08/01 10:17:39;;;;;;;;;;;;;;;29.58;37.91;100165.75;5078565;28;1103;-28
2023/08/01 10:20:05;;;;;;;;;;;;;;;29.70;37.78;100172.22;5079072;28;1197;-30
2023/08/01 10:22:31;;;;;;;;;;;;;;;29.70;37.83;100165.94;5096716;28;1117;-30
2023/08/01 10:24:56;;;;;;;;;;;;;;;29.63;38.14;100165.16;5095358;28;2709;-32
2023/08/01 10:27:22;;;;;;;;;;;;;;;29.62;38.15;100158.91;5079020;28;1142;-33
2023/08/01 10:30:00;;;;;;;;;;;;;;;29.57;38.12;100162.25;5078701;28;1369;-31
2023/08/01 10:32:36;;;;;;;;;;;;;;;29.68;37.84;100155.34;5097278;28;1098;-29
2023/08/01 10:35:01;;;;;;;;;;;;;;;29.58;38.04;100147.63;5096048;28;1016;-29
2023/08/01 10:37:27;;;;;;;;;;;;;;;29.74;37.56;100152.81;5097275;28;1355;-30
2023/08/01 10:39:56;;;;;;;;;;;;;;;29.72;37.70;100142.19;5097033;28;1166;-33
2023/08/01 10:42:22;;;;;;;;;;;;;;;29.65;37.51;100144.91;5097101;28;1121;-30
2023/08/01 10:44:47;;;;;;;;;;;;;;;29.63;37.54;100143.50;5096892;28;1066;-31
2023/08/01 10:47:13;;;;;;;;;;;;;;;29.73;37.38;100135.72;5095861;28;1980;-32
2023/08/01 10:49:39;;;;;;;;;;;;;;;29.78;37.43;100133.19;5096434;28;1127;-32
2023/08/01 10:52:26;;;;;;;;;;;;;;;29.56;37.78;100129.94;5096816;28;1252;-29
2023/08/01 10:54:59;;;;;;;;;;;;;;;29.69;37.44;100129.06;5096028;28;2233;-34
2023/08/01 10:57:24;;;;;;;;;;;;;;;29.58;37.77;100128.66;5096649;28;1308;-27
2023/08/01 10:59:50;;;;;;;;;;;;;;;29.56;38.05;100125.31;5096318;28;974;-33
2023/08/01 11:02:25;;;;;;;;;;;;;;;29.55;37.69;100125.53;5096928;28;1106;-32
2023/08/01 11:04:54;;;;;;;;;;;;;;;29.39;38.37;100119.56;5095747;28;1205;-31
2023/08/01 11:07:20;;;;;;;;;;;;;;;29.43;38.21;100118.09;5096668;28;1910;-33
2023/08/01 11:09:46;;;;;;;;;;;;;;;29.50;37.92;100120.78;5096035;28;1070;-27
2023/08/01 11:12:11;;;;;;;;;;;;;;;29.49;38.07;100118.28;5095306;28;1130;-29
2023/08/01 11:14:37;;;;;;;;;;;;;;;29.50;37.54;100117.22;5096070;28;1161;-29
2023/08/01 11:17:02;;;;;;;;;;;;;;;29.57;37.29;100112.63;5096092;28;1300;-29
2023/08/01 11:19:28;;;;;;;;;;;;;;;29.54;37.61;100111.19;5078452;28;1095;-32
2023/08/01 11:21:57;;;;;;;;;;;;;;;29.85;36.84;100110.63;5094955;28;1050;-27
2023/08/01 11:24:22;;;;;;;;;;;;;;;29.90;37.22;100105.38;5095941;28;2469;-28
2023/08/01 11:26:48;;;;;;;;;;;;;;;30.00;37.24;100113.88;5095835;28;1969;-28
2023/08/01 11:29:14;;;;;;;;;;;;;;;29.90;37.42;100110.78;5077959;28;1081;-30
2023/08/01 11:31:41;;;;;;;;;;;;;;;29.88;37.64;100104.78;5096139;28;1077;-33
2023/08/01 11:34:08;;;;;;;;;;;;;;;29.88;37.63;100110.22;5095631;28;1327;-31
2023/08/01 11:36:33;;;;;;;;;;;;;;;29.84;37.77;100100.84;5095596;28;1085;-34
2023/08/01 11:38:59;;;;;;;;;;;;;;;29.96;37.47;100107.25;5077533;28;1167;-29
2023/08/01 11:41:26;;;;;;;;;;;;;;;30.18;37.71;100101.44;5096053;28;1200;-29
2023/08/01 11:43:52;;;;;;;;;;;;;;;30.10;37.90;100090.84;5096032;28;1070;-31
2023/08/01 11:46:17;;;;;;;;;;;;;;;30.04;37.61;100092.56;5078010;28;1962;-29
2023/08/01 11:48:52;;;;;;;;;;;;;;;29.94;38.01;100091.19;5095931;28;1087;-33
2023/08/01 11:51:17;;;;;;;;;;;;;;;29.91;36.98;100088.88;5095685;28;1085;-30
2023/08/01 11:53:43;;;;;;;;;;;;;;;29.87;37.10;100089.53;5088363;28;2196;-30
2023/08/01 11:56:19;;;;;;;;;;;;;;;29.94;37.28;100079.50;5095876;28;1088;-31
2023/08/01 11:58:44;;;;;;;;;;;;;;;29.82;37.59;100074.78;5095341;28;1192;-32
2023/08/01 12:01:10;;;;;;;;;;;;;;;29.81;37.50;100080.44;5095366;28;1102;-30
2023/08/01 12:04:02;;;;;;;;;;;;;;;29.92;36.97;100079.72;5095605;28;1049;-29
2023/08/01 12:06:30;;;;;;;;;;;;;;;30.21;36.28;100084.78;5090966;28;1897;-29
2023/08/01 12:08:56;;;;;;;;;;;;;;;29.93;37.45;100072.41;5095787;28;995;-30
2023/08/01 12:11:26;;;;;;;;;;;;;;;30.09;36.50;100068.34;5076487;28;1325;-30
2023/08/01 12:14:00;;;;;;;;;;;;;;;30.05;35.93;100064.41;5083326;28;1090;-31
2023/08/01 12:16:26;;;;;;;;;;;;;;;30.16;36.00;100077.25;5093426;28;1134;-30
2023/08/01 12:18:52;;;;;;;;;;;;;;;30.17;35.79;100078.94;5084490;28;1332;-28
2023/08/01 12:21:17;;;;;;;;;;;;;;;30.15;37.20;100074.75;5095742;28;1026;-28
2023/08/01 12:23:43;;;;;;;;;;;;;;;30.12;37.30;100075.19;5094930;28;1974;-30
2023/08/01 12:26:08;;;;;;;;;;;;;;;30.15;37.29;100069.31;5095038;28;1913;-30
2023/08/01 12:28:34;;;;;;;;;;;;;;;30.23;37.05;100060.13;5095676;28;1006;-31
2023/08/01 12:31:00;;;;;;;;;;;;;;;30.39;36.24;100066.88;5095498;28;1091;-31
2023/08/01 12:33:26;;;;;;;;;;;;;;;30.29;35.96;100068.22;5095232;28;1034;-29
2023/08/01 12:35:51;;;;;;;;;;;;;;;30.21;36.26;100070.38;5095020;28;1107;-29
2023/08/01 12:38:17;;;;;;;;;;;;;;;30.34;37.17;100070.28;5095978;28;1054;-31
2023/08/01 12:40:42;;;;;;;;;;;;;;;30.35;37.18;100061.06;5095637;28;1213;-31
2023/08/01 12:43:08;;;;;;;;;;;;;;;30.41;37.26;100053.94;5095359;28;1412;-30